sensor_id;sensor_type;location;lat;lon;timestamp;P1;durP1;ratioP1;P2;durP2;ratioP2
39612;SDS011;25303;48.896;13.342;2023-08-31T00:00:10;5.45;;;4.53;;
39612;SDS011;25303;48.896;13.342;2023-08-31T00:05:37;6.32;;;4.93;;
39612;SDS011;25303;48.896;13.342;2023-08-31T00:11:06;6.53;;;4.88;;
39612;SDS011;25303;48.896;13.342;2023-08-31T00:13:49;5.43;;;4.40;;
39612;SDS011;25303;48.896;13.342;2023-08-31T00:16:33;6.82;;;5.10;;
39612;SDS011;25303;48.896;13.342;2023-08-31T00:19:18;6.45;;;5.00;;
39612;SDS011;25303;48.896;13.342;2023-08-31T00:22:01;8.27;;;5.45;;
39612;SDS011;25303;48.896;13.342;2023-08-31T00:24:45;7.47;;;5.55;;
39612;SDS011;25303;48.896;13.342;2023-08-31T00:27:30;7.35;;;5.05;;
39612;SDS011;25303;48.896;13.342;2023-08-31T00:30:13;5.88;;;4.13;;
39612;SDS011;25303;48.896;13.342;2023-08-31T00:32:56;7.30;;;5.10;;
39612;SDS011;25303;48.896;13.342;2023-08-31T00:35:42;6.65;;;4.65;;
39612;SDS011;25303;48.896;13.342;2023-08-31T00:38:25;8.57;;;6.35;;
39612;SDS011;25303;48.896;13.342;2023-08-31T00:41:08;7.63;;;5.88;;
39612;SDS011;25303;48.896;13.342;2023-08-31T00:43:52;8.88;;;6.30;;
39612;SDS011;25303;48.896;13.342;2023-08-31T00:46:35;6.28;;;4.97;;
39612;SDS011;25303;48.896;13.342;2023-08-31T00:49:18;8.45;;;6.00;;
39612;SDS011;25303;48.896;13.342;2023-08-31T00:52:01;5.40;;;4.68;;
39612;SDS011;25303;48.896;13.342;2023-08-31T00:54:46;6.97;;;5.43;;
39612;SDS011;25303;48.896;13.342;2023-08-31T00:57:30;7.65;;;5.93;;
39612;SDS011;25303;48.896;13.342;2023-08-31T01:00:15;8.23;;;5.78;;
39612;SDS011;25303;48.896;13.342;2023-08-31T01:05:46;7.38;;;5.40;;
39612;SDS011;25303;48.896;13.342;2023-08-31T01:08:36;6.95;;;5.03;;
39612;SDS011;25303;48.896;13.342;2023-08-31T01:11:28;5.05;;;3.88;;
39612;SDS011;25303;48.896;13.342;2023-08-31T01:14:17;7.80;;;5.45;;
39612;SDS011;25303;48.896;13.342;2023-08-31T01:17:03;7.20;;;4.72;;
39612;SDS011;25303;48.896;13.342;2023-08-31T01:19:48;6.70;;;4.95;;
39612;SDS011;25303;48.896;13.342;2023-08-31T01:22:33;7.53;;;5.53;;
39612;SDS011;25303;48.896;13.342;2023-08-31T01:25:23;7.25;;;5.35;;
39612;SDS011;25303;48.896;13.342;2023-08-31T01:28:10;7.50;;;5.88;;
39612;SDS011;25303;48.896;13.342;2023-08-31T01:30:54;8.82;;;6.90;;
39612;SDS011;25303;48.896;13.342;2023-08-31T01:33:37;7.50;;;5.80;;
39612;SDS011;25303;48.896;13.342;2023-08-31T01:36:23;7.88;;;5.90;;
39612;SDS011;25303;48.896;13.342;2023-08-31T01:39:10;6.72;;;5.38;;
39612;SDS011;25303;48.896;13.342;2023-08-31T01:42:00;6.43;;;5.03;;
39612;SDS011;25303;48.896;13.342;2023-08-31T01:44:46;7.43;;;5.78;;
39612;SDS011;25303;48.896;13.342;2023-08-31T01:47:31;6.38;;;5.13;;
39612;SDS011;25303;48.896;13.342;2023-08-31T01:50:14;9.35;;;6.68;;
39612;SDS011;25303;48.896;13.342;2023-08-31T01:52:57;7.32;;;5.88;;
39612;SDS011;25303;48.896;13.342;2023-08-31T01:55:40;8.48;;;5.90;;
39612;SDS011;25303;48.896;13.342;2023-08-31T01:58:25;8.18;;;6.20;;
39612;SDS011;25303;48.896;13.342;2023-08-31T02:01:08;7.72;;;5.70;;
39612;SDS011;25303;48.896;13.342;2023-08-31T02:03:53;7.63;;;4.82;;
39612;SDS011;25303;48.896;13.342;2023-08-31T02:06:36;5.72;;;4.57;;
39612;SDS011;25303;48.896;13.342;2023-08-31T02:09:21;5.32;;;3.85;;
39612;SDS011;25303;48.896;13.342;2023-08-31T02:12:04;5.82;;;4.80;;
39612;SDS011;25303;48.896;13.342;2023-08-31T02:14:49;7.00;;;5.50;;
39612;SDS011;25303;48.896;13.342;2023-08-31T02:17:32;6.50;;;5.20;;
39612;SDS011;25303;48.896;13.342;2023-08-31T02:20:16;5.90;;;4.78;;
39612;SDS011;25303;48.896;13.342;2023-08-31T02:23:01;7.72;;;4.97;;
39612;SDS011;25303;48.896;13.342;2023-08-31T02:25:44;7.30;;;5.82;;
39612;SDS011;25303;48.896;13.342;2023-08-31T02:28:29;7.28;;;5.57;;
39612;SDS011;25303;48.896;13.342;2023-08-31T02:31:13;7.72;;;5.82;;
39612;SDS011;25303;48.896;13.342;2023-08-31T02:33:58;7.25;;;5.78;;
39612;SDS011;25303;48.896;13.342;2023-08-31T02:36:41;7.90;;;6.20;;
39612;SDS011;25303;48.896;13.342;2023-08-31T02:39:24;6.70;;;5.28;;
39612;SDS011;25303;48.896;13.342;2023-08-31T02:42:06;3.95;;;3.38;;
39612;SDS011;25303;48.896;13.342;2023-08-31T02:44:51;4.70;;;3.78;;
39612;SDS011;25303;48.896;13.342;2023-08-31T02:47:36;4.95;;;4.45;;
39612;SDS011;25303;48.896;13.342;2023-08-31T02:50:19;5.82;;;3.97;;
39612;SDS011;25303;48.896;13.342;2023-08-31T02:53:02;5.88;;;3.72;;
39612;SDS011;25303;48.896;13.342;2023-08-31T02:55:46;6.30;;;4.05;;
39612;SDS011;25303;48.896;13.342;2023-08-31T02:58:29;20.73;;;4.07;;
39612;SDS011;25303;48.896;13.342;2023-08-31T03:01:13;4.05;;;3.45;;
39612;SDS011;25303;48.896;13.342;2023-08-31T03:04:02;5.70;;;3.70;;
39612;SDS011;25303;48.896;13.342;2023-08-31T03:06:45;5.00;;;3.90;;
39612;SDS011;25303;48.896;13.342;2023-08-31T03:09:28;5.03;;;4.40;;
39612;SDS011;25303;48.896;13.342;2023-08-31T03:12:11;16.17;;;5.50;;
39612;SDS011;25303;48.896;13.342;2023-08-31T03:14:54;5.22;;;4.38;;
39612;SDS011;25303;48.896;13.342;2023-08-31T03:17:37;5.70;;;4.28;;
39612;SDS011;25303;48.896;13.342;2023-08-31T03:20:22;6.63;;;4.50;;
39612;SDS011;25303;48.896;13.342;2023-08-31T03:23:05;4.88;;;3.83;;
39612;SDS011;25303;48.896;13.342;2023-08-31T03:25:50;5.20;;;4.68;;
39612;SDS011;25303;48.896;13.342;2023-08-31T03:28:33;4.45;;;3.85;;
39612;SDS011;25303;48.896;13.342;2023-08-31T03:31:16;9.55;;;3.97;;
39612;SDS011;25303;48.896;13.342;2023-08-31T03:33:59;8.05;;;4.53;;
39612;SDS011;25303;48.896;13.342;2023-08-31T03:36:43;6.80;;;5.18;;
39612;SDS011;25303;48.896;13.342;2023-08-31T03:39:26;6.50;;;5.15;;
39612;SDS011;25303;48.896;13.342;2023-08-31T03:42:09;6.55;;;4.93;;
39612;SDS011;25303;48.896;13.342;2023-08-31T03:44:52;15.30;;;5.03;;
39612;SDS011;25303;48.896;13.342;2023-08-31T03:47:35;5.28;;;4.68;;
39612;SDS011;25303;48.896;13.342;2023-08-31T03:50:18;5.63;;;4.13;;
39612;SDS011;25303;48.896;13.342;2023-08-31T03:53:03;4.93;;;3.85;;
39612;SDS011;25303;48.896;13.342;2023-08-31T03:55:46;5.75;;;3.97;;
39612;SDS011;25303;48.896;13.342;2023-08-31T03:58:29;5.40;;;4.43;;
39612;SDS011;25303;48.896;13.342;2023-08-31T04:01:12;6.65;;;5.35;;
39612;SDS011;25303;48.896;13.342;2023-08-31T04:03:56;4.88;;;4.00;;
39612;SDS011;25303;48.896;13.342;2023-08-31T04:06:39;5.53;;;4.32;;
39612;SDS011;25303;48.896;13.342;2023-08-31T04:09:23;4.40;;;3.90;;
39612;SDS011;25303;48.896;13.342;2023-08-31T04:12:07;5.20;;;3.80;;
39612;SDS011;25303;48.896;13.342;2023-08-31T04:14:50;4.82;;;4.22;;
39612;SDS011;25303;48.896;13.342;2023-08-31T04:17:33;5.68;;;4.82;;
39612;SDS011;25303;48.896;13.342;2023-08-31T04:20:16;5.15;;;4.47;;
39612;SDS011;25303;48.896;13.342;2023-08-31T04:22:59;4.40;;;3.58;;
39612;SDS011;25303;48.896;13.342;2023-08-31T04:25:43;3.97;;;3.38;;
39612;SDS011;25303;48.896;13.342;2023-08-31T04:28:26;4.35;;;3.17;;
39612;SDS011;25303;48.896;13.342;2023-08-31T04:31:09;4.28;;;3.50;;
39612;SDS011;25303;48.896;13.342;2023-08-31T04:33:53;4.60;;;3.53;;
39612;SDS011;25303;48.896;13.342;2023-08-31T04:36:36;4.43;;;3.65;;
39612;SDS011;25303;48.896;13.342;2023-08-31T04:39:18;5.32;;;3.78;;
39612;SDS011;25303;48.896;13.342;2023-08-31T04:42:03;5.22;;;3.63;;
39612;SDS011;25303;48.896;13.342;2023-08-31T04:44:46;3.75;;;3.25;;
39612;SDS011;25303;48.896;13.342;2023-08-31T04:47:29;4.53;;;3.58;;
39612;SDS011;25303;48.896;13.342;2023-08-31T04:50:12;5.00;;;3.47;;
39612;SDS011;25303;48.896;13.342;2023-08-31T04:52:55;4.70;;;3.72;;
39612;SDS011;25303;48.896;13.342;2023-08-31T04:55:39;3.97;;;3.37;;
39612;SDS011;25303;48.896;13.342;2023-08-31T04:58:24;4.93;;;3.55;;
39612;SDS011;25303;48.896;13.342;2023-08-31T05:01:06;3.40;;;3.00;;
39612;SDS011;25303;48.896;13.342;2023-08-31T05:03:51;3.70;;;3.10;;
39612;SDS011;25303;48.896;13.342;2023-08-31T05:06:34;3.85;;;3.22;;
39612;SDS011;25303;48.896;13.342;2023-08-31T05:09:17;4.07;;;3.63;;
39612;SDS011;25303;48.896;13.342;2023-08-31T05:12:00;3.78;;;3.25;;
39612;SDS011;25303;48.896;13.342;2023-08-31T05:14:45;3.72;;;2.70;;
39612;SDS011;25303;48.896;13.342;2023-08-31T05:17:28;5.95;;;3.88;;
39612;SDS011;25303;48.896;13.342;2023-08-31T05:20:11;5.53;;;2.95;;
39612;SDS011;25303;48.896;13.342;2023-08-31T05:22:54;4.00;;;3.42;;
39612;SDS011;25303;48.896;13.342;2023-08-31T05:25:41;4.22;;;3.25;;
39612;SDS011;25303;48.896;13.342;2023-08-31T05:28:24;10.93;;;4.70;;
39612;SDS011;25303;48.896;13.342;2023-08-31T05:31:08;4.85;;;4.10;;
39612;SDS011;25303;48.896;13.342;2023-08-31T05:33:51;10.38;;;4.07;;
39612;SDS011;25303;48.896;13.342;2023-08-31T05:36:34;5.85;;;4.00;;
39612;SDS011;25303;48.896;13.342;2023-08-31T05:39:17;13.43;;;4.47;;
39612;SDS011;25303;48.896;13.342;2023-08-31T05:42:00;7.78;;;4.60;;
39612;SDS011;25303;48.896;13.342;2023-08-31T05:44:44;35.33;;;6.65;;
39612;SDS011;25303;48.896;13.342;2023-08-31T05:47:28;5.40;;;4.00;;
39612;SDS011;25303;48.896;13.342;2023-08-31T05:50:11;22.15;;;4.97;;
39612;SDS011;25303;48.896;13.342;2023-08-31T05:52:55;5.90;;;4.10;;
39612;SDS011;25303;48.896;13.342;2023-08-31T05:55:38;6.43;;;4.70;;
39612;SDS011;25303;48.896;13.342;2023-08-31T05:58:21;6.30;;;4.80;;
39612;SDS011;25303;48.896;13.342;2023-08-31T06:01:05;4.43;;;3.87;;
39612;SDS011;25303;48.896;13.342;2023-08-31T06:03:49;4.13;;;3.58;;
39612;SDS011;25303;48.896;13.342;2023-08-31T06:06:33;4.30;;;3.50;;
39612;SDS011;25303;48.896;13.342;2023-08-31T06:09:15;4.57;;;4.10;;
39612;SDS011;25303;48.896;13.342;2023-08-31T06:11:58;4.55;;;3.75;;
39612;SDS011;25303;48.896;13.342;2023-08-31T06:14:41;5.05;;;3.60;;
39612;SDS011;25303;48.896;13.342;2023-08-31T06:17:24;4.03;;;3.50;;
39612;SDS011;25303;48.896;13.342;2023-08-31T06:20:10;3.70;;;3.22;;
39612;SDS011;25303;48.896;13.342;2023-08-31T06:22:53;4.20;;;3.35;;
39612;SDS011;25303;48.896;13.342;2023-08-31T06:25:36;6.47;;;4.60;;
39612;SDS011;25303;48.896;13.342;2023-08-31T06:28:19;4.60;;;3.97;;
39612;SDS011;25303;48.896;13.342;2023-08-31T06:31:02;4.93;;;3.92;;
39612;SDS011;25303;48.896;13.342;2023-08-31T06:33:45;5.82;;;5.22;;
39612;SDS011;25303;48.896;13.342;2023-08-31T06:36:30;6.15;;;4.80;;
39612;SDS011;25303;48.896;13.342;2023-08-31T06:39:13;3.97;;;3.58;;
39612;SDS011;25303;48.896;13.342;2023-08-31T06:41:57;5.77;;;3.87;;
39612;SDS011;25303;48.896;13.342;2023-08-31T06:44:44;4.88;;;4.22;;
39612;SDS011;25303;48.896;13.342;2023-08-31T06:47:27;5.47;;;3.92;;
39612;SDS011;25303;48.896;13.342;2023-08-31T06:50:10;5.57;;;3.95;;
39612;SDS011;25303;48.896;13.342;2023-08-31T06:52:54;4.72;;;3.88;;
39612;SDS011;25303;48.896;13.342;2023-08-31T06:55:37;5.15;;;3.17;;
39612;SDS011;25303;48.896;13.342;2023-08-31T06:58:20;2.90;;;2.60;;
39612;SDS011;25303;48.896;13.342;2023-08-31T07:01:05;5.68;;;3.30;;
39612;SDS011;25303;48.896;13.342;2023-08-31T07:03:48;4.78;;;3.30;;
39612;SDS011;25303;48.896;13.342;2023-08-31T07:06:31;5.50;;;3.50;;
39612;SDS011;25303;48.896;13.342;2023-08-31T07:09:17;4.88;;;4.00;;
39612;SDS011;25303;48.896;13.342;2023-08-31T07:12:00;4.55;;;4.07;;
39612;SDS011;25303;48.896;13.342;2023-08-31T07:14:43;4.03;;;3.28;;
39612;SDS011;25303;48.896;13.342;2023-08-31T07:17:27;4.60;;;3.30;;
39612;SDS011;25303;48.896;13.342;2023-08-31T07:20:11;3.97;;;2.88;;
39612;SDS011;25303;48.896;13.342;2023-08-31T07:22:54;5.75;;;3.40;;
39612;SDS011;25303;48.896;13.342;2023-08-31T07:25:38;4.55;;;2.55;;
39612;SDS011;25303;48.896;13.342;2023-08-31T07:28:21;3.17;;;2.60;;
39612;SDS011;25303;48.896;13.342;2023-08-31T07:31:05;4.35;;;2.40;;
39612;SDS011;25303;48.896;13.342;2023-08-31T07:33:50;3.28;;;2.33;;
39612;SDS011;25303;48.896;13.342;2023-08-31T07:36:33;3.10;;;2.22;;
39612;SDS011;25303;48.896;13.342;2023-08-31T07:39:16;3.20;;;2.15;;
39612;SDS011;25303;48.896;13.342;2023-08-31T07:42:01;3.88;;;2.67;;
39612;SDS011;25303;48.896;13.342;2023-08-31T07:44:44;2.40;;;1.70;;
39612;SDS011;25303;48.896;13.342;2023-08-31T07:47:27;5.05;;;2.30;;
39612;SDS011;25303;48.896;13.342;2023-08-31T07:50:14;3.38;;;2.15;;
39612;SDS011;25303;48.896;13.342;2023-08-31T07:52:57;4.83;;;2.43;;
39612;SDS011;25303;48.896;13.342;2023-08-31T07:55:40;2.97;;;2.17;;
39612;SDS011;25303;48.896;13.342;2023-08-31T07:58:24;2.33;;;1.80;;
39612;SDS011;25303;48.896;13.342;2023-08-31T08:01:08;2.35;;;1.80;;
39612;SDS011;25303;48.896;13.342;2023-08-31T08:03:51;3.40;;;2.08;;
39612;SDS011;25303;48.896;13.342;2023-08-31T08:06:34;3.05;;;1.70;;
39612;SDS011;25303;48.896;13.342;2023-08-31T08:09:17;3.08;;;1.85;;
39612;SDS011;25303;48.896;13.342;2023-08-31T08:12:00;2.72;;;1.75;;
39612;SDS011;25303;48.896;13.342;2023-08-31T08:14:44;4.47;;;2.17;;
39612;SDS011;25303;48.896;13.342;2023-08-31T08:17:27;3.45;;;2.05;;
39612;SDS011;25303;48.896;13.342;2023-08-31T08:20:11;3.78;;;1.80;;
39612;SDS011;25303;48.896;13.342;2023-08-31T08:22:54;4.93;;;1.98;;
39612;SDS011;25303;48.896;13.342;2023-08-31T08:28:22;3.42;;;2.30;;
39612;SDS011;25303;48.896;13.342;2023-08-31T08:31:06;5.18;;;2.00;;
39612;SDS011;25303;48.896;13.342;2023-08-31T08:33:49;3.40;;;1.75;;
39612;SDS011;25303;48.896;13.342;2023-08-31T08:36:32;3.72;;;2.00;;
39612;SDS011;25303;48.896;13.342;2023-08-31T08:39:15;4.93;;;1.95;;
39612;SDS011;25303;48.896;13.342;2023-08-31T08:41:58;4.57;;;1.60;;
39612;SDS011;25303;48.896;13.342;2023-08-31T08:44:41;6.43;;;2.20;;
39612;SDS011;25303;48.896;13.342;2023-08-31T08:47:27;3.70;;;1.60;;
39612;SDS011;25303;48.896;13.342;2023-08-31T08:50:12;6.05;;;1.60;;
39612;SDS011;25303;48.896;13.342;2023-08-31T08:52:55;4.97;;;1.73;;
39612;SDS011;25303;48.896;13.342;2023-08-31T08:55:38;5.28;;;1.70;;
39612;SDS011;25303;48.896;13.342;2023-08-31T08:58:23;3.58;;;1.65;;
39612;SDS011;25303;48.896;13.342;2023-08-31T09:01:06;4.22;;;1.70;;
39612;SDS011;25303;48.896;13.342;2023-08-31T09:03:52;3.97;;;1.30;;
39612;SDS011;25303;48.896;13.342;2023-08-31T09:06:35;4.70;;;1.77;;
39612;SDS011;25303;48.896;13.342;2023-08-31T09:09:18;3.97;;;1.83;;
39612;SDS011;25303;48.896;13.342;2023-08-31T09:12:09;4.32;;;1.77;;
39612;SDS011;25303;48.896;13.342;2023-08-31T09:14:58;3.75;;;1.90;;
39612;SDS011;25303;48.896;13.342;2023-08-31T09:17:42;3.70;;;1.73;;
39612;SDS011;25303;48.896;13.342;2023-08-31T09:20:28;4.27;;;2.27;;
39612;SDS011;25303;48.896;13.342;2023-08-31T09:25:55;2.80;;;1.55;;
39612;SDS011;25303;48.896;13.342;2023-08-31T09:28:40;4.40;;;1.80;;
39612;SDS011;25303;48.896;13.342;2023-08-31T09:31:29;2.70;;;1.50;;
39612;SDS011;25303;48.896;13.342;2023-08-31T09:34:13;4.57;;;1.70;;
39612;SDS011;25303;48.896;13.342;2023-08-31T09:36:58;5.07;;;1.87;;
39612;SDS011;25303;48.896;13.342;2023-08-31T09:39:47;3.70;;;1.50;;
39612;SDS011;25303;48.896;13.342;2023-08-31T09:42:35;5.63;;;1.55;;
39612;SDS011;25303;48.896;13.342;2023-08-31T09:45:24;4.85;;;1.58;;
39612;SDS011;25303;48.896;13.342;2023-08-31T09:48:26;4.00;;;1.45;;
39612;SDS011;25303;48.896;13.342;2023-08-31T09:51:10;3.03;;;1.30;;
39612;SDS011;25303;48.896;13.342;2023-08-31T09:53:55;7.32;;;1.38;;
39612;SDS011;25303;48.896;13.342;2023-08-31T09:56:40;3.70;;;1.33;;
39612;SDS011;25303;48.896;13.342;2023-08-31T09:59:24;3.67;;;1.30;;
39612;SDS011;25303;48.896;13.342;2023-08-31T10:04:55;4.72;;;1.77;;
39612;SDS011;25303;48.896;13.342;2023-08-31T10:07:39;8.07;;;1.50;;
39612;SDS011;25303;48.896;13.342;2023-08-31T10:10:25;4.23;;;1.60;;
39612;SDS011;25303;48.896;13.342;2023-08-31T10:13:10;3.53;;;1.50;;
39612;SDS011;25303;48.896;13.342;2023-08-31T10:15:54;5.18;;;1.55;;
39612;SDS011;25303;48.896;13.342;2023-08-31T10:18:37;5.90;;;1.33;;
39612;SDS011;25303;48.896;13.342;2023-08-31T10:21:21;4.78;;;1.60;;
39612;SDS011;25303;48.896;13.342;2023-08-31T10:24:05;3.22;;;1.17;;
39612;SDS011;25303;48.896;13.342;2023-08-31T10:26:49;3.00;;;1.45;;
39612;SDS011;25303;48.896;13.342;2023-08-31T10:29:32;2.60;;;1.30;;
39612;SDS011;25303;48.896;13.342;2023-08-31T10:32:16;3.22;;;1.20;;
39612;SDS011;25303;48.896;13.342;2023-08-31T10:35:07;2.42;;;1.10;;
39612;SDS011;25303;48.896;13.342;2023-08-31T10:38:01;3.50;;;1.33;;
39612;SDS011;25303;48.896;13.342;2023-08-31T10:41:03;4.93;;;1.70;;
39612;SDS011;25303;48.896;13.342;2023-08-31T10:44:17;4.95;;;2.10;;
39612;SDS011;25303;48.896;13.342;2023-08-31T10:47:02;5.25;;;1.60;;
39612;SDS011;25303;48.896;13.342;2023-08-31T10:49:49;4.90;;;1.63;;
39612;SDS011;25303;48.896;13.342;2023-08-31T10:52:33;5.15;;;1.80;;
39612;SDS011;25303;48.896;13.342;2023-08-31T10:55:27;3.85;;;1.42;;
39612;SDS011;25303;48.896;13.342;2023-08-31T10:58:14;2.13;;;1.40;;
39612;SDS011;25303;48.896;13.342;2023-08-31T11:00:58;3.25;;;1.40;;
39612;SDS011;25303;48.896;13.342;2023-08-31T11:03:56;4.40;;;1.77;;
39612;SDS011;25303;48.896;13.342;2023-08-31T11:06:40;4.65;;;1.60;;
39612;SDS011;25303;48.896;13.342;2023-08-31T11:09:23;3.05;;;1.67;;
39612;SDS011;25303;48.896;13.342;2023-08-31T11:12:06;6.05;;;1.88;;
39612;SDS011;25303;48.896;13.342;2023-08-31T11:14:50;5.60;;;1.60;;
39612;SDS011;25303;48.896;13.342;2023-08-31T11:17:34;4.97;;;1.85;;
39612;SDS011;25303;48.896;13.342;2023-08-31T11:20:22;4.82;;;1.70;;
39612;SDS011;25303;48.896;13.342;2023-08-31T11:23:10;2.92;;;1.45;;
39612;SDS011;25303;48.896;13.342;2023-08-31T11:25:53;2.85;;;1.30;;
39612;SDS011;25303;48.896;13.342;2023-08-31T11:28:36;4.15;;;1.60;;
39612;SDS011;25303;48.896;13.342;2023-08-31T11:31:23;4.45;;;1.58;;
39612;SDS011;25303;48.896;13.342;2023-08-31T11:34:07;3.63;;;1.70;;
39612;SDS011;25303;48.896;13.342;2023-08-31T11:36:55;3.42;;;1.50;;
39612;SDS011;25303;48.896;13.342;2023-08-31T11:39:38;2.40;;;1.20;;
39612;SDS011;25303;48.896;13.342;2023-08-31T11:42:22;5.20;;;1.43;;
39612;SDS011;25303;48.896;13.342;2023-08-31T11:45:05;3.40;;;1.55;;
39612;SDS011;25303;48.896;13.342;2023-08-31T11:47:49;4.07;;;1.30;;
39612;SDS011;25303;48.896;13.342;2023-08-31T11:50:34;4.28;;;1.55;;
39612;SDS011;25303;48.896;13.342;2023-08-31T11:53:18;3.05;;;1.25;;
39612;SDS011;25303;48.896;13.342;2023-08-31T11:56:01;3.75;;;1.50;;
39612;SDS011;25303;48.896;13.342;2023-08-31T11:58:45;4.63;;;1.40;;
39612;SDS011;25303;48.896;13.342;2023-08-31T12:01:45;4.80;;;1.35;;
39612;SDS011;25303;48.896;13.342;2023-08-31T12:04:30;3.30;;;1.45;;
39612;SDS011;25303;48.896;13.342;2023-08-31T12:07:17;5.15;;;1.38;;
39612;SDS011;25303;48.896;13.342;2023-08-31T12:10:04;4.63;;;1.40;;
39612;SDS011;25303;48.896;13.342;2023-08-31T12:12:47;3.13;;;1.35;;
39612;SDS011;25303;48.896;13.342;2023-08-31T12:15:30;2.58;;;1.10;;
39612;SDS011;25303;48.896;13.342;2023-08-31T12:18:14;4.88;;;1.42;;
39612;SDS011;25303;48.896;13.342;2023-08-31T12:20:57;2.58;;;1.08;;
39612;SDS011;25303;48.896;13.342;2023-08-31T12:23:41;3.63;;;1.40;;
39612;SDS011;25303;48.896;13.342;2023-08-31T12:26:24;5.88;;;1.30;;
39612;SDS011;25303;48.896;13.342;2023-08-31T12:29:07;2.05;;;1.10;;
39612;SDS011;25303;48.896;13.342;2023-08-31T12:31:50;3.50;;;1.33;;
39612;SDS011;25303;48.896;13.342;2023-08-31T12:34:33;2.95;;;1.00;;
39612;SDS011;25303;48.896;13.342;2023-08-31T12:37:16;3.15;;;1.13;;
39612;SDS011;25303;48.896;13.342;2023-08-31T12:40:00;3.28;;;1.20;;
39612;SDS011;25303;48.896;13.342;2023-08-31T12:42:47;3.05;;;1.30;;
39612;SDS011;25303;48.896;13.342;2023-08-31T12:45:29;5.18;;;1.30;;
39612;SDS011;25303;48.896;13.342;2023-08-31T12:48:13;3.55;;;1.25;;
39612;SDS011;25303;48.896;13.342;2023-08-31T12:50:56;4.32;;;1.10;;
39612;SDS011;25303;48.896;13.342;2023-08-31T12:53:39;3.42;;;1.17;;
39612;SDS011;25303;48.896;13.342;2023-08-31T12:56:23;4.30;;;1.27;;
39612;SDS011;25303;48.896;13.342;2023-08-31T12:59:06;3.08;;;1.20;;
39612;SDS011;25303;48.896;13.342;2023-08-31T13:01:49;3.22;;;1.35;;
39612;SDS011;25303;48.896;13.342;2023-08-31T13:04:32;3.95;;;1.50;;
39612;SDS011;25303;48.896;13.342;2023-08-31T13:07:16;3.53;;;1.38;;
39612;SDS011;25303;48.896;13.342;2023-08-31T13:09:59;4.97;;;1.58;;
39612;SDS011;25303;48.896;13.342;2023-08-31T13:12:44;5.13;;;1.15;;
39612;SDS011;25303;48.896;13.342;2023-08-31T13:15:27;4.95;;;1.30;;
39612;SDS011;25303;48.896;13.342;2023-08-31T13:18:11;5.32;;;1.52;;
39612;SDS011;25303;48.896;13.342;2023-08-31T13:20:54;5.80;;;1.40;;
39612;SDS011;25303;48.896;13.342;2023-08-31T13:23:38;5.20;;;1.40;;
39612;SDS011;25303;48.896;13.342;2023-08-31T13:26:24;2.58;;;1.05;;
39612;SDS011;25303;48.896;13.342;2023-08-31T13:29:08;5.97;;;1.35;;
39612;SDS011;25303;48.896;13.342;2023-08-31T13:31:51;5.30;;;2.25;;
39612;SDS011;25303;48.896;13.342;2023-08-31T13:34:34;26.73;;;12.52;;
39612;SDS011;25303;48.896;13.342;2023-08-31T13:37:18;43.50;;;18.55;;
39612;SDS011;25303;48.896;13.342;2023-08-31T13:40:01;16.38;;;6.93;;
39612;SDS011;25303;48.896;13.342;2023-08-31T13:42:52;18.10;;;9.50;;
39612;SDS011;25303;48.896;13.342;2023-08-31T13:45:39;51.22;;;25.08;;
39612;SDS011;25303;48.896;13.342;2023-08-31T13:48:22;27.30;;;13.23;;
39612;SDS011;25303;48.896;13.342;2023-08-31T13:51:05;10.35;;;5.00;;
39612;SDS011;25303;48.896;13.342;2023-08-31T13:53:48;12.00;;;6.75;;
39612;SDS011;25303;48.896;13.342;2023-08-31T13:56:31;11.27;;;5.95;;
39612;SDS011;25303;48.896;13.342;2023-08-31T13:59:14;10.82;;;6.15;;
39612;SDS011;25303;48.896;13.342;2023-08-31T14:01:58;10.45;;;5.20;;
39612;SDS011;25303;48.896;13.342;2023-08-31T14:04:42;6.10;;;3.30;;
39612;SDS011;25303;48.896;13.342;2023-08-31T14:07:25;3.50;;;1.60;;
39612;SDS011;25303;48.896;13.342;2023-08-31T14:10:08;4.50;;;1.58;;
39612;SDS011;25303;48.896;13.342;2023-08-31T14:12:51;3.92;;;1.60;;
39612;SDS011;25303;48.896;13.342;2023-08-31T14:15:34;3.92;;;1.60;;
39612;SDS011;25303;48.896;13.342;2023-08-31T14:18:19;6.75;;;1.60;;
39612;SDS011;25303;48.896;13.342;2023-08-31T14:21:03;4.95;;;1.65;;
39612;SDS011;25303;48.896;13.342;2023-08-31T14:23:46;4.07;;;1.30;;
39612;SDS011;25303;48.896;13.342;2023-08-31T14:26:29;5.40;;;1.70;;
39612;SDS011;25303;48.896;13.342;2023-08-31T14:29:12;3.88;;;1.30;;
39612;SDS011;25303;48.896;13.342;2023-08-31T14:31:55;5.40;;;1.77;;
39612;SDS011;25303;48.896;13.342;2023-08-31T14:34:40;3.10;;;0.95;;
39612;SDS011;25303;48.896;13.342;2023-08-31T14:37:23;2.78;;;1.23;;
39612;SDS011;25303;48.896;13.342;2023-08-31T14:40:06;13.57;;;1.60;;
39612;SDS011;25303;48.896;13.342;2023-08-31T14:42:50;2.85;;;1.17;;
39612;SDS011;25303;48.896;13.342;2023-08-31T14:45:36;2.50;;;1.10;;
39612;SDS011;25303;48.896;13.342;2023-08-31T14:48:20;3.67;;;1.20;;
39612;SDS011;25303;48.896;13.342;2023-08-31T14:51:04;2.90;;;1.10;;
39612;SDS011;25303;48.896;13.342;2023-08-31T14:53:47;4.20;;;1.50;;
39612;SDS011;25303;48.896;13.342;2023-08-31T14:56:30;2.60;;;1.23;;
39612;SDS011;25303;48.896;13.342;2023-08-31T14:59:13;3.55;;;1.40;;
39612;SDS011;25303;48.896;13.342;2023-08-31T15:01:56;3.53;;;1.30;;
39612;SDS011;25303;48.896;13.342;2023-08-31T15:04:39;4.05;;;1.15;;
39612;SDS011;25303;48.896;13.342;2023-08-31T15:07:23;3.92;;;1.30;;
39612;SDS011;25303;48.896;13.342;2023-08-31T15:10:07;2.50;;;0.98;;
39612;SDS011;25303;48.896;13.342;2023-08-31T15:12:50;4.07;;;1.80;;
39612;SDS011;25303;48.896;13.342;2023-08-31T15:15:39;6.93;;;2.30;;
39612;SDS011;25303;48.896;13.342;2023-08-31T15:18:26;5.10;;;3.55;;
39612;SDS011;25303;48.896;13.342;2023-08-31T15:21:09;10.20;;;6.57;;
39612;SDS011;25303;48.896;13.342;2023-08-31T15:23:54;7.03;;;4.10;;
39612;SDS011;25303;48.896;13.342;2023-08-31T15:26:37;3.88;;;1.80;;
39612;SDS011;25303;48.896;13.342;2023-08-31T15:29:20;3.42;;;1.50;;
39612;SDS011;25303;48.896;13.342;2023-08-31T15:32:03;2.92;;;1.27;;
39612;SDS011;25303;48.896;13.342;2023-08-31T15:34:47;2.75;;;1.27;;
39612;SDS011;25303;48.896;13.342;2023-08-31T15:37:32;4.32;;;1.15;;
39612;SDS011;25303;48.896;13.342;2023-08-31T15:40:16;3.25;;;1.00;;
39612;SDS011;25303;48.896;13.342;2023-08-31T15:45:44;3.13;;;1.20;;
39612;SDS011;25303;48.896;13.342;2023-08-31T15:48:28;3.92;;;1.23;;
39612;SDS011;25303;48.896;13.342;2023-08-31T15:51:12;4.73;;;1.50;;
39612;SDS011;25303;48.896;13.342;2023-08-31T15:53:55;3.97;;;1.30;;
39612;SDS011;25303;48.896;13.342;2023-08-31T15:56:39;1.65;;;1.10;;
39612;SDS011;25303;48.896;13.342;2023-08-31T15:59:22;3.72;;;1.77;;
39612;SDS011;25303;48.896;13.342;2023-08-31T16:02:05;3.50;;;1.80;;
39612;SDS011;25303;48.896;13.342;2023-08-31T16:04:48;2.88;;;1.40;;
39612;SDS011;25303;48.896;13.342;2023-08-31T16:07:31;2.80;;;1.13;;
39612;SDS011;25303;48.896;13.342;2023-08-31T16:10:14;3.47;;;1.10;;
39612;SDS011;25303;48.896;13.342;2023-08-31T16:12:59;2.10;;;1.10;;
39612;SDS011;25303;48.896;13.342;2023-08-31T16:15:44;3.15;;;1.10;;
39612;SDS011;25303;48.896;13.342;2023-08-31T16:18:28;3.17;;;1.27;;
39612;SDS011;25303;48.896;13.342;2023-08-31T16:21:11;3.13;;;1.50;;
39612;SDS011;25303;48.896;13.342;2023-08-31T16:23:54;4.22;;;2.05;;
39612;SDS011;25303;48.896;13.342;2023-08-31T16:26:37;3.88;;;1.88;;
39612;SDS011;25303;48.896;13.342;2023-08-31T16:29:21;4.55;;;2.08;;
39612;SDS011;25303;48.896;13.342;2023-08-31T16:32:05;3.92;;;1.40;;